Time;durP1;ratioP1;P1;durP2;ratioP2;P2;SDS_P1;SDS_P2;PMS_P1;PMS_P2;Temp;Humidity;BMP_temperature;BMP_pressure;BME280_temperature;BME280_humidity;BME280_pressure;Samples;Min_cycle;Max_cycle;Signal;HPM_P1;HPM_P2
2021/05/01 00:09:07;;;;;;;29.10;19.47;;;;;;;6.21;64.10;99262.33;514048;1104;116762;-73
2021/05/01 00:19:12;;;;;;;34.20;20.05;;;;;;;6.33;64.75;99295.60;514794;1104;116356;-74
2021/05/01 00:29:17;;;;;;;28.70;20.17;;;;;;;6.40;64.30;99317.81;512648;1104;115901;-73
2021/05/01 00:39:21;;;;;;;21.40;16.77;;;;;;;6.36;64.43;99284.17;512996;1104;115834;-70
2021/05/01 00:49:26;;;;;;;25.23;17.03;;;;;;;6.29;64.45;99255.80;512626;1104;116241;-71
2021/05/01 00:59:31;;;;;;;20.65;15.45;;;;;;;6.35;65.17;99278.10;515837;1100;114964;-71
2021/05/01 01:09:36;;;;;;;18.50;14.67;;;;;;;6.55;65.58;99299.70;512773;1099;115961;-70
2021/05/01 01:19:40;;;;;;;16.55;13.10;;;;;;;6.67;65.44;99291.23;513100;1104;116316;-72
2021/05/01 01:29:47;;;;;;;15.97;13.77;;;;;;;6.77;65.19;99285.54;513798;1099;115554;-72
2021/05/01 01:39:52;;;;;;;19.33;14.33;;;;;;;6.72;65.62;99312.70;512112;1104;116514;-70
2021/05/01 01:49:56;;;;;;;16.70;14.20;;;;;;;6.62;65.62;99300.23;513024;1104;115215;-71
2021/05/01 02:00:01;;;;;;;19.00;13.90;;;;;;;6.56;66.64;99278.73;513213;1104;115560;-74
2021/05/01 02:10:12;;;;;;;21.80;15.40;;;;;;;6.64;66.95;99269.67;512351;1104;115418;-72
2021/05/01 02:20:21;;;;;;;19.23;15.23;;;;;;;6.71;66.46;99287.53;513283;1104;115568;-73
2021/05/01 02:30:27;;;;;;;19.83;14.63;;;;;;;6.76;67.57;99257.77;513109;1100;115380;-72
2021/05/01 02:40:33;;;;;;;20.87;15.30;;;;;;;6.68;67.32;99252.92;512661;1099;116277;-72
2021/05/01 02:50:37;;;;;;;21.73;16.00;;;;;;;6.56;67.68;99246.61;513488;1100;115785;-74
2021/05/01 03:00:42;;;;;;;21.20;16.43;;;;;;;6.46;67.70;99230.58;517338;1098;116075;-76
2021/05/01 03:10:47;;;;;;;22.43;16.47;;;;;;;6.53;68.12;99252.00;513607;1104;116514;-72
2021/05/01 03:20:52;;;;;;;20.93;15.87;;;;;;;6.55;68.34;99240.53;512328;1104;115358;-73
2021/05/01 03:30:57;;;;;;;23.25;15.75;;;;;;;6.47;68.62;99210.58;512529;1104;117306;-73
2021/05/01 03:41:02;;;;;;;21.57;14.60;;;;;;;6.48;69.13;99238.34;513312;1100;116517;-73
2021/05/01 03:51:06;;;;;;;21.15;16.10;;;;;;;6.50;69.13;99247.78;512934;1099;115886;-74
2021/05/01 04:01:11;;;;;;;22.10;17.03;;;;;;;6.46;69.22;99248.84;512391;1100;115639;-76
2021/05/01 04:11:16;;;;;;;25.67;17.43;;;;;;;6.67;70.01;99254.70;513570;1104;115903;-76
2021/05/01 04:21:20;;;;;;;21.70;17.63;;;;;;;6.80;69.52;99262.70;513371;1104;115652;-77
2021/05/01 04:31:25;;;;;;;25.03;17.10;;;;;;;7.05;69.35;99257.94;512404;1100;115850;-74
2021/05/01 04:41:29;;;;;;;20.20;15.57;;;;;;;7.07;68.82;99259.55;513609;1099;115578;-73
2021/05/01 04:51:34;;;;;;;21.70;17.50;;;;;;;7.01;69.25;99252.03;512671;1104;115932;-72
2021/05/01 05:01:39;;;;;;;20.63;17.07;;;;;;;7.11;69.28;99252.39;515866;1104;116505;-73
2021/05/01 05:11:44;;;;;;;21.07;16.60;;;;;;;7.39;69.07;99264.75;513912;1099;116361;-73
2021/05/01 05:21:48;;;;;;;18.60;16.40;;;;;;;7.54;68.62;99272.64;512836;1104;115902;-73
2021/05/01 05:31:53;;;;;;;17.20;14.55;;;;;;;7.44;68.63;99282.75;512911;1099;116035;-74
2021/05/01 05:41:58;;;;;;;17.85;15.05;;;;;;;7.63;67.94;99290.42;512820;1100;116014;-73
2021/05/01 05:52:02;;;;;;;21.70;16.40;;;;;;;7.88;68.18;99285.55;512091;1099;115492;-73
2021/05/01 06:02:08;;;;;;;24.97;17.80;;;;;;;7.89;67.82;99264.55;512420;1104;115815;-72
2021/05/01 06:12:16;;;;;;;21.43;17.17;;;;;;;8.01;68.09;99268.20;513096;1099;115357;-73
2021/05/01 06:22:21;;;;;;;20.70;18.50;;;;;;;7.97;67.93;99283.25;512677;1100;116515;-73
2021/05/01 06:32:25;;;;;;;22.50;18.53;;;;;;;8.09;67.83;99286.09;512966;1099;115369;-72
2021/05/01 06:42:34;;;;;;;20.83;17.77;;;;;;;8.64;67.39;99281.96;513330;1104;115851;-67
2021/05/01 06:52:43;;;;;;;22.77;18.23;;;;;;;8.82;66.74;99277.37;512736;1104;116350;-69
2021/05/01 07:02:49;;;;;;;23.20;19.70;;;;;;;9.11;66.29;99274.69;513680;1104;115942;-68
2021/05/01 07:12:55;;;;;;;19.67;16.70;;;;;;;9.33;65.73;99283.81;515154;1104;117431;-70
2021/05/01 07:22:59;;;;;;;22.40;17.77;;;;;;;9.53;65.01;99279.93;525905;1104;116926;-70
2021/05/01 07:33:16;;;;;;;20.23;17.90;;;;;;;9.32;64.67;99283.92;515754;1104;116170;-72
2021/05/01 07:43:21;;;;;;;21.03;18.03;;;;;;;9.21;64.41;99280.20;512637;1104;116470;-70
2021/05/01 07:53:26;;;;;;;20.93;18.70;;;;;;;9.10;64.53;99275.63;512197;1099;115983;-71
2021/05/01 08:03:31;;;;;;;20.73;17.43;;;;;;;9.19;65.61;99276.00;515096;1104;116104;-71
2021/05/01 08:13:35;;;;;;;23.50;18.50;;;;;;;9.36;65.73;99277.54;512768;1100;115887;-64
2021/05/01 08:23:41;;;;;;;22.83;17.17;;;;;;;9.19;65.84;99281.23;512829;1100;116126;-64
2021/05/01 08:33:45;;;;;;;20.30;18.20;;;;;;;8.91;66.04;99285.59;511718;1104;116068;-64
2021/05/01 08:43:53;;;;;;;20.07;17.63;;;;;;;9.03;66.60;99300.55;512393;1104;116565;-63
2021/05/01 08:53:57;;;;;;;18.90;16.80;;;;;;;9.12;66.26;99296.50;512267;1104;116373;-63
2021/05/01 09:04:04;;;;;;;21.43;17.27;;;;;;;9.20;66.85;99309.11;512046;1104;115579;-63
2021/05/01 09:14:19;;;;;;;26.57;20.57;;;;;;;9.19;66.38;99299.57;513468;1100;115504;-63
2021/05/01 09:24:25;;;;;;;22.37;19.97;;;;;;;9.01;67.07;99281.47;512817;1104;116293;-64
2021/05/01 09:34:50;;;;;;;23.80;19.27;;;;;;;9.10;66.86;99280.87;512197;1099;116487;-63
2021/05/01 09:45:10;;;;;;;22.63;19.40;;;;;;;8.85;67.30;99283.34;513061;1104;115254;-64
2021/05/01 09:55:15;;;;;;;24.70;21.40;;;;;;;8.68;67.56;99299.15;511288;1104;116508;-67
2021/05/01 10:05:20;;;;;;;22.23;19.83;;;;;;;8.54;68.04;99284.31;512772;1104;115902;-72
2021/05/01 10:15:28;;;;;;;25.50;21.67;;;;;;;8.60;68.60;99274.39;495543;1099;20002267;-71
2021/05/01 10:25:34;;;;;;;26.47;21.63;;;;;;;8.48;68.27;99282.02;512474;1104;117234;-64
2021/05/01 10:35:40;;;;;;;26.10;21.47;;;;;;;8.42;68.67;99250.97;512181;1104;116827;-65
2021/05/01 10:45:55;;;;;;;24.87;20.97;;;;;;;8.38;68.88;99228.56;511612;1099;115614;-66
2021/05/01 10:56:00;;;;;;;25.23;21.27;;;;;;;8.52;69.22;99233.81;512148;1099;116372;-65
2021/05/01 11:06:08;;;;;;;25.07;21.83;;;;;;;8.96;68.53;99218.05;511737;1104;115496;-65
2021/05/01 11:16:17;;;;;;;22.18;19.48;;;;;;;9.08;67.74;99219.89;510381;1099;116250;-64
2021/05/01 11:26:24;;;;;;;21.55;19.25;;;;;;;9.09;67.55;99228.59;512397;1100;116556;-64
2021/05/01 11:36:31;;;;;;;19.77;17.60;;;;;;;9.02;67.57;99235.16;512406;1100;115481;-65
2021/05/01 11:46:42;;;;;;;20.27;18.07;;;;;;;9.27;67.10;99225.72;512766;1104;115933;-66
2021/05/01 11:56:57;;;;;;;19.80;16.87;;;;;;;9.45;66.98;99234.17;512605;1100;115938;-66
2021/05/01 12:07:02;;;;;;;22.17;19.63;;;;;;;9.45;66.80;99253.37;511846;1104;117042;-64
2021/05/01 12:17:13;;;;;;;20.50;17.97;;;;;;;9.34;66.86;99254.05;514957;1104;116036;-65
2021/05/01 12:27:49;;;;;;;21.40;19.10;;;;;;;9.30;67.10;99262.23;513569;1104;116377;-67
2021/05/01 12:37:58;;;;;;;25.07;20.27;;;;;;;9.55;67.24;99260.64;512951;1099;116396;-66
2021/05/01 12:48:02;;;;;;;23.20;20.27;;;;;;;9.45;66.92;99244.65;513761;1104;116207;-71
2021/05/01 12:58:19;;;;;;;24.70;21.70;;;;;;;9.23;66.70;99228.55;514252;1104;150127;-68
2021/05/01 13:08:27;;;;;;;23.20;20.50;;;;;;;9.41;67.06;99240.56;512694;1100;115854;-70
2021/05/01 13:18:33;;;;;;;23.83;20.90;;;;;;;9.62;66.93;99238.31;513964;1104;115854;-70
2021/05/01 13:28:37;;;;;;;28.25;21.93;;;;;;;9.78;66.52;99238.98;514277;1104;116118;-71
2021/05/01 13:38:44;;;;;;;25.83;20.93;;;;;;;9.74;66.21;99220.94;516753;1104;116114;-71
2021/05/01 13:48:50;;;;;;;23.63;20.73;;;;;;;10.16;66.08;99192.76;514254;1104;116441;-70
2021/05/01 13:58:56;;;;;;;23.50;20.95;;;;;;;10.13;65.74;99207.86;514138;1100;116656;-64
2021/05/01 14:09:02;;;;;;;25.67;22.03;;;;;;;10.03;65.46;99215.50;512343;1104;117282;-65
2021/05/01 14:19:19;;;;;;;27.90;22.15;;;;;;;9.94;65.40;99206.48;512453;1099;116463;-67
2021/05/01 14:29:25;;;;;;;26.63;23.73;;;;;;;9.98;65.71;99196.63;512541;1104;115938;-66
2021/05/01 14:39:30;;;;;;;25.97;22.47;;;;;;;10.06;65.45;99192.53;515524;1100;116644;-64
2021/05/01 14:49:39;;;;;;;27.27;21.97;;;;;;;10.17;64.91;99183.94;513428;1098;115728;-64
2021/05/01 14:59:46;;;;;;;24.73;21.87;;;;;;;10.12;65.23;99167.66;514117;1100;115530;-63
2021/05/01 15:09:53;;;;;;;26.13;23.13;;;;;;;10.06;64.97;99179.41;495312;1104;10001909;-64
2021/05/01 15:20:16;;;;;;;24.80;22.23;;;;;;;10.01;65.24;99175.42;512674;1100;116591;-63
2021/05/01 15:30:27;;;;;;;26.90;23.95;;;;;;;9.94;65.28;99180.25;512609;1099;116375;-68
2021/05/01 15:40:32;;;;;;;28.27;25.30;;;;;;;9.77;65.36;99173.53;512144;1104;116062;-66
2021/05/01 15:50:37;;;;;;;28.27;25.10;;;;;;;9.67;65.72;99155.80;512572;1104;115875;-64
2021/05/01 16:00:42;;;;;;;26.47;23.63;;;;;;;9.73;66.05;99143.23;511568;1100;116314;-67
2021/05/01 16:10:48;;;;;;;27.17;22.20;;;;;;;9.71;65.92;99145.95;512386;1100;116179;-66
2021/05/01 16:20:52;;;;;;;28.87;23.53;;;;;;;9.55;66.44;99140.89;512449;1100;116336;-65
2021/05/01 16:30:57;;;;;;;23.77;21.43;;;;;;;9.38;66.49;99139.40;512028;1104;116019;-68
2021/05/01 16:41:02;;;;;;;26.17;22.13;;;;;;;9.25;67.03;99132.35;512924;1100;115722;-62
2021/05/01 16:51:07;;;;;;;26.10;22.17;;;;;;;9.10;67.21;99122.89;512772;1099;116160;-61
2021/05/01 17:01:16;;;;;;;24.37;21.73;;;;;;;9.02;67.67;99126.02;511771;1104;117519;-62
2021/05/01 17:11:23;;;;;;;28.60;23.73;;;;;;;8.95;68.09;99120.34;512875;1100;116325;-63
2021/05/01 17:21:29;;;;;;;25.73;21.07;;;;;;;8.86;68.42;99114.84;512840;1104;117278;-61
2021/05/01 17:31:34;;;;;;;25.77;22.13;;;;;;;8.79;68.67;99125.73;513056;1099;116117;-62
2021/05/01 17:41:38;;;;;;;25.40;21.17;;;;;;;8.74;69.09;99137.43;513350;1104;115887;-65
2021/05/01 17:51:43;;;;;;;23.70;20.23;;;;;;;8.72;69.25;99150.61;512362;1104;116871;-63
2021/05/01 18:01:48;;;;;;;21.45;18.85;;;;;;;8.59;69.10;99162.79;512328;1104;115643;-63
2021/05/01 18:11:52;;;;;;;21.17;19.03;;;;;;;8.47;69.34;99170.44;513377;1104;116103;-64
2021/05/01 18:21:59;;;;;;;18.78;16.80;;;;;;;8.41;69.76;99168.19;512767;1104;115914;-65
2021/05/01 18:32:06;;;;;;;20.67;16.70;;;;;;;8.36;69.71;99165.85;512268;1104;116862;-64
2021/05/01 18:42:13;;;;;;;19.68;16.43;;;;;;;8.33;70.00;99175.69;512941;1104;115943;-63
2021/05/01 18:52:18;;;;;;;18.43;16.40;;;;;;;8.26;70.29;99181.28;511831;1099;116204;-63
2021/05/01 19:02:23;;;;;;;22.50;18.80;;;;;;;8.20;70.42;99179.06;513473;1099;116594;-64
2021/05/01 19:12:29;;;;;;;22.63;20.07;;;;;;;8.11;70.74;99177.81;513047;1100;115664;-64
2021/05/01 19:22:36;;;;;;;23.87;20.70;;;;;;;8.09;71.55;99178.88;512500;1104;115610;-62
2021/05/01 19:32:43;;;;;;;26.57;21.27;;;;;;;8.04;71.45;99178.29;512744;1104;115895;-63
2021/05/01 19:42:55;;;;;;;26.20;22.03;;;;;;;7.96;72.13;99160.45;512219;1104;115861;-63
2021/05/01 19:53:00;;;;;;;29.86;25.23;;;;;;;7.89;72.55;99167.83;506036;1104;10001380;-64
2021/05/01 20:03:06;;;;;;;30.23;24.50;;;;;;;7.91;72.84;99149.45;513005;1104;117358;-62
2021/05/01 20:13:11;;;;;;;26.07;21.93;;;;;;;7.83;73.19;99129.82;513777;1104;116111;-64
2021/05/01 20:23:16;;;;;;;29.77;25.03;;;;;;;7.72;73.66;99095.65;512977;1100;116397;-63
2021/05/01 20:33:22;;;;;;;28.87;23.53;;;;;;;7.73;73.61;99086.02;512355;1104;115981;-63
2021/05/01 20:43:30;;;;;;;30.35;24.05;;;;;;;7.70;74.54;99074.83;512992;1104;116721;-63
2021/05/01 20:53:34;;;;;;;32.43;26.58;;;;;;;7.69;74.52;99067.09;512923;1100;116248;-63
2021/05/01 21:03:41;;;;;;;27.97;22.83;;;;;;;7.74;74.66;99079.89;511724;1104;116141;-62
2021/05/01 21:13:46;;;;;;;30.00;23.80;;;;;;;7.75;74.45;99079.78;513081;1104;116028;-64
2021/05/01 21:23:50;;;;;;;26.40;22.67;;;;;;;7.78;74.82;99074.36;512858;1099;115913;-63
2021/05/01 21:33:58;;;;;;;27.15;23.50;;;;;;;7.85;74.64;99070.45;511807;1104;116272;-64
2021/05/01 21:44:03;;;;;;;27.60;23.70;;;;;;;7.87;74.84;99069.51;512490;1098;116423;-63
2021/05/01 21:54:08;;;;;;;31.87;24.13;;;;;;;7.80;74.82;99062.06;513775;1104;118280;-63
2021/05/01 22:04:13;;;;;;;33.50;28.93;;;;;;;7.79;75.60;99041.23;512358;1104;115459;-63
2021/05/01 22:14:18;;;;;;;33.13;25.63;;;;;;;7.73;76.01;99024.16;512782;1099;116230;-63
2021/05/01 22:24:27;;;;;;;35.67;26.93;;;;;;;7.72;75.75;99025.09;513451;1104;116741;-63
2021/05/01 22:34:35;;;;;;;31.67;26.63;;;;;;;7.73;75.72;99047.67;513806;1104;115448;-63
2021/05/01 22:44:40;;;;;;;34.60;28.47;;;;;;;7.75;76.18;99026.69;513430;1100;116017;-63
2021/05/01 22:54:45;;;;;;;32.73;27.60;;;;;;;7.75;76.02;98997.94;512820;1104;116647;-63
2021/05/01 23:04:51;;;;;;;35.03;27.37;;;;;;;7.73;76.25;98966.66;513309;1104;116543;-63
2021/05/01 23:14:57;;;;;;;36.53;28.03;;;;;;;7.69;76.68;98937.26;513135;1104;115244;-64
2021/05/01 23:25:02;;;;;;;34.23;27.83;;;;;;;7.69;77.26;98908.52;512807;1099;116864;-63
2021/05/01 23:35:09;;;;;;;34.53;27.77;;;;;;;7.64;77.01;98873.16;513828;1104;115690;-64
2021/05/01 23:45:15;;;;;;;37.77;28.13;;;;;;;7.63;77.44;98892.39;513424;1100;116194;-65
2021/05/01 23:55:23;;;;;;;36.47;30.13;;;;;;;7.65;77.50;98893.97;512849;1100;116011;-64
